Lexington, KY (40514)

9:39 PM EDT on October 24, 2014 (GMT -0400)
Open Gates | Change Station
CLOSE
Current Station
Personal Weather Station
Location: Lexington, KY
Elevation: 1014 ft
Nearby Weather Stations

Elev 1014 ft 38.01 °N, 84.54 °W | Updated 14 seconds ago

Clear
Clear
48.8 °F
Feels Like 49 °F
N
0.0
Wind Variable Wind from NW
Gusts 0.0 mph

Today
High -- | Low -- °F
--% Chance of Precip.
Yesterday
High -- | Low -- °F
Precip. -- in
7:55 AM 6:48 PM
New Moon, 1% visible
Pressure 30.07 in
Visibility 10.0 miles
Clouds Clear
Windchill 49 °F
Dew Point 45 °F
Humidity 86%
Rainfall 0.00 in
Snow Depth Not available.
UV 0.0 out of 12
Pollen 1.50 out of 12
PM2.5 Good
Flu Activity Sporadic
METAR KLEX 250054Z 14004KT 10SM CLR 11/06 A3006 RMK AO2 SLP182 T01060061

More Conditions Fewer Conditions

Pressure 30.07 in
Visibility 10.0 miles
Clouds Clear
Windchill 49 °F
Dew Point 45 °F
Humidity 86%
Rainfall 0.00 in
Snow Depth Not available.
UV 0.0 out of 12
Pollen 1.50 out of 12
PM2.5 Good
Flu Activity Sporadic
METAR KLEX 250054Z 14004KT 10SM CLR 11/06 A3006 RMK AO2 SLP182 T01060061

More Conditions Fewer Conditions

10-Day Weather Forecast

Almanac

Astronomy

Oct. 24, 2014 Rise Set
Actual Time 7:55 AM EDT 6:48 PM EDT
Civil Twilight 7:28 AM EDT 7:15 PM EDT
Nautical Twilight 6:58 AM EDT 7:46 PM EDT
Astronomical Twilight 6:27 AM EDT 8:16 PM EDT
Moon 8:33 AM EDT (10/24) 7:28 PM EDT (10/24)
Length of Visible Light 11h 46m
Length of Day
10h 52m
Tomorrow will be 2m 16s shorter.
New Moon, 1% of the Moon is Illuminated
Today
New Moon
Oct 30
First Quarter
Nov 6
Full
Nov 14
Last Quarter
Nov 22
New

Today's Extremes

State Highs State Lows

Community

WunderPhotos

Upload Photos

1,764,749 photos uploaded!

WunderBlogs® & News

Nearby

Air Quality

  Air Quality AQ Index Pollutant
Yesterday Good
OZONE
Yesterday Good
PM2.5
Current Good
PM2.5
Friday Good
OZONE
Saturday Good
OZONE

Snow Depth

Station Depth Elevation
No new snow has been reported.

Earthquake Activity

City Distance Mag. Time & Date
No recent earthquake activity has been reported nearby.
Minimum magnitude displayed is 2.5.

Coastal Water Temperatures

Place Temperature
No Stations Reporting

Nearby Weather Stations